KFAT/FAT METAR and TAF weather

Enter ICAO airport designator
Station Type Date Time Source
KFAT METAR 2019/02/20 16:53 UTC NOAA

KFAT 201653Z 10006KT 10SM FEW045 OVC110 06/01 A2999 RMK AO2 SLP157 CLDS TPG MTNS DSNT E T00610006


Station Type Date Time Source
KFAT Decoded METAR 2019/02/20 16:53 UTC NOAA

FRESNO AIR TERMINAL, CA, United States (KFAT) 36-47N 119-43W 104M
Feb 20, 2019 - 11:53 AM EST / 2019.02.20 1653 UTC
Wind: from the E (100 degrees) at 7 MPH (6 KT):0
Visibility: 10 mile(s):0
Sky conditions: overcast
Temperature: 43.0 F (6.1 C)
Dew Point: 33.1 F (0.6 C)
Relative Humidity: 67%
Pressure (altimeter): 29.99 in. Hg (1015 hPa)
ob: KFAT 201653Z 10006KT 10SM FEW045 OVC110 06/01 A2999 RMK AO2 SLP157 CLDS TPG MTNS DSNT E T00610006
cycle: 17

Station Type Date Time Source
KFAT TAF 2019/02/20 18:36 UTC NOAA

TAF KFAT 201735Z 2018/2118 15006KT P6SM OVC060
TEMPO 2102/2106 5SM -SHRA BKN030 OVC050
FM210600 31005KT P6SM BKN050


Example: see airport list